»·PEaware :: N2102W KCMA-KTOA

N2102W :: KCMA-KTOA

FLIGHT INFORMATION

Flight Status: Arrived
Operator: Privately registered:
United States
More flights under this callsign
Pilot: Eric G. (5941)
Aircraft: CESSNA 525A CITATION CJ2
(C25A)
More flights by this aircraft type
Origin: KCMA Camarillo
United States
Destination: KTOA Zamperini
United States
More flights between these airports :: More routes between these airports
Route: +VTUP9
File this flight plan on PilotEdge
Remarks:
Altitude:
(Current/Filed)
7,000ft
Speed:
(Current/Filed)
250kts
Departed: 25-May-19 11:03 AM
Arrived: 25-May-19 11:38 AM
Distance/Time
Traveled:
45nm/0:35
Distance/Time
To Go:
Arrived

Flight Plot

Page will automatically refresh every two minutes.

Flight plan parsing failed; only flown route is shown


Map Options




Map Legend


Flown Route
Filed Route
Departure Airport
Arrival Airport
Navaid (VOR, NDB)
Fix

Horizontal Profiles

Position Reports

Time Latitude Longitude Heading Altitude Ground
Speed
25-May-19 10:47 34.210736 -119.084651 269 79ft 0kts
25-May-19 10:48 34.210736 -119.084651 269 79ft 0kts
25-May-19 10:49 34.210736 -119.084651 269 79ft 0kts
25-May-19 10:50 34.210736 -119.084651 269 79ft 0kts
25-May-19 10:51 34.210736 -119.084651 269 79ft 0kts
25-May-19 10:52 34.210736 -119.084651 269 79ft 0kts
25-May-19 10:53 34.210736 -119.084651 269 79ft 0kts
25-May-19 10:54 34.210736 -119.084651 269 79ft 0kts
25-May-19 10:55 34.210736 -119.084651 269 79ft 0kts
25-May-19 10:56 34.210736 -119.084651 269 79ft 0kts
25-May-19 10:57 34.210762 -119.084693 355 79ft 0kts
25-May-19 10:58 34.210766 -119.084694 355 79ft 0kts
25-May-19 10:59 34.212416 -119.084595 1 79ft 11kts
25-May-19 11:00 34.212899 -119.084597 357 79ft 0kts
25-May-19 11:01 34.212901 -119.084597 357 79ft 0kts
25-May-19 11:02 34.213687 -119.086292 268 79ft 62kts
25-May-19 11:03 34.219050 -119.141679 289 3131ft 217kts
25-May-19 11:04 34.240032 -119.214381 291 4018ft 206kts
25-May-19 11:05 34.265187 -119.275349 298 4151ft 193kts
25-May-19 11:06 34.288491 -119.336625 289 3941ft 202kts
25-May-19 11:07 34.308904 -119.398683 294 3982ft 200kts
25-May-19 11:08 34.331659 -119.455626 280 3894ft 201kts
25-May-19 11:09 34.297672 -119.486606 158 4107ft 193kts
25-May-19 11:10 34.267190 -119.439548 120 3966ft 203kts
25-May-19 11:11 34.237197 -119.368307 111 4031ft 257kts
25-May-19 11:12 34.212822 -119.288437 114 3992ft 252kts
25-May-19 11:13 34.183844 -119.211717 114 3995ft 251kts
25-May-19 11:14 34.155453 -119.141848 118 3998ft 251kts
25-May-19 11:15 34.122226 -119.067400 119 3997ft 252kts
25-May-19 11:16 34.060373 -119.039046 175 3994ft 249kts
25-May-19 11:17 33.991169 -119.032453 175 3995ft 249kts
25-May-19 11:18 33.921340 -119.026305 176 5161ft 230kts
25-May-19 11:19 33.851987 -119.020531 176 6821ft 228kts
25-May-19 11:20 33.791029 -119.010424 148 6997ft 273kts
25-May-19 11:21 33.741617 -118.942078 126 7005ft 281kts
25-May-19 11:22 33.699209 -118.872714 127 7007ft 282kts
25-May-19 11:23 33.650767 -118.800140 128 7008ft 275kts
25-May-19 11:24 33.631278 -118.720112 95 6986ft 275kts
25-May-19 11:25 33.624513 -118.628604 94 6987ft 274kts
25-May-19 11:26 33.618011 -118.537455 94 6989ft 274kts
25-May-19 11:27 33.611563 -118.446271 94 6987ft 275kts
25-May-19 11:28 33.605320 -118.355689 94 6459ft 261kts
25-May-19 11:29 33.610853 -118.283361 57 5043ft 230kts
25-May-19 11:30 33.645801 -118.227389 51 4000ft 200kts
25-May-19 11:31 33.681117 -118.173264 51 3358ft 200kts
25-May-19 11:32 33.715110 -118.183121 285 2263ft 178kts
25-May-19 11:33 33.738263 -118.238564 306 2240ft 166kts
25-May-19 11:34 33.764552 -118.279665 305 1357ft 152kts
25-May-19 11:35 33.786583 -118.312970 306 636ft 119kts
25-May-19 11:36 33.804438 -118.340266 304 107ft 43kts
25-May-19 11:37 33.805875 -118.343652 297 107ft 11kts
25-May-19 11:38 33.805013 -118.345019 130 107ft 14kts
25-May-19 11:39 33.802724 -118.342457 209 107ft 6kts
25-May-19 11:40 33.802078 -118.342125 211 107ft 0kts
25-May-19 11:41 33.802078 -118.342125 211 107ft 0kts

Navigation Log

Ident Type
Flight plan parsing failed, navigation log unavailable